createdAt,value
2022-08-19T00:02:04.348Z,9.20
2022-08-19T00:04:36.096Z,10.07
2022-08-19T00:09:32.344Z,8.95
2022-08-19T00:12:00.519Z,9.65
2022-08-19T00:14:28.892Z,9.50
2022-08-19T00:16:56.085Z,9.65
2022-08-19T00:19:24.323Z,9.68
2022-08-19T00:21:52.239Z,9.15
2022-08-19T00:24:19.751Z,9.50
2022-08-19T00:26:49.432Z,9.27
2022-08-19T00:29:19.954Z,9.27
2022-08-19T00:31:47.981Z,8.80
2022-08-19T00:34:18.121Z,9.88
2022-08-19T00:36:46.155Z,9.10
2022-08-19T00:39:15.344Z,10.13
2022-08-19T00:41:44.077Z,9.77
2022-08-19T00:44:17.352Z,9.63
2022-08-19T00:46:55.326Z,9.95
2022-08-19T00:49:31.445Z,10.18
2022-08-19T00:52:03.596Z,9.68
2022-08-19T00:54:31.581Z,9.38
2022-08-19T00:56:59.600Z,9.38
2022-08-19T01:00:00.326Z,10.02
2022-08-19T01:02:17.856Z,10.40
2022-08-19T01:04:45.672Z,9.10
2022-08-19T01:07:15.142Z,9.30
2022-08-19T01:09:47.699Z,10.15
2022-08-19T01:12:15.513Z,11.13
2022-08-19T01:14:44.655Z,10.82
2022-08-19T01:17:13.569Z,9.65
2022-08-19T01:19:44.809Z,10.35
2022-08-19T01:22:26.483Z,10.68
2022-08-19T01:24:57.932Z,10.55
2022-08-19T01:27:26.953Z,10.20
2022-08-19T01:29:57.192Z,10.38
2022-08-19T01:32:34.047Z,11.27
2022-08-19T01:35:02.869Z,9.38
2022-08-19T01:37:30.834Z,10.70
2022-08-19T01:39:59.458Z,10.10
2022-08-19T01:42:30.108Z,10.55
2022-08-19T01:44:57.955Z,10.43
2022-08-19T01:47:25.378Z,10.63
2022-08-19T01:49:53.054Z,11.00
2022-08-19T01:52:20.308Z,10.68
2022-08-19T01:54:47.602Z,11.27
2022-08-19T01:57:16.993Z,10.80
2022-08-19T01:59:46.364Z,10.95
2022-08-19T02:02:13.749Z,10.90
2022-08-19T02:04:41.206Z,9.82
2022-08-19T02:07:08.956Z,10.90
2022-08-19T02:09:36.510Z,10.45
2022-08-19T02:12:04.635Z,10.52
2022-08-19T02:14:34.834Z,10.25
2022-08-19T02:17:02.080Z,10.27
2022-08-19T02:19:29.676Z,10.70
2022-08-19T02:21:56.900Z,10.15
2022-08-19T02:24:24.294Z,10.20
2022-08-19T02:26:51.748Z,9.93
2022-08-19T02:29:18.994Z,9.95
2022-08-19T02:31:47.709Z,10.60
2022-08-19T02:34:15.209Z,10.70
2022-08-19T02:36:42.725Z,10.77
2022-08-19T02:39:10.119Z,10.27
2022-08-19T02:41:37.555Z,9.60
2022-08-19T02:44:30.357Z,10.27
2022-08-19T02:46:54.983Z,10.45
2022-08-19T02:49:22.123Z,11.23
2022-08-19T02:51:49.522Z,10.27
2022-08-19T02:54:17.034Z,11.23
2022-08-19T02:56:45.169Z,10.50
2022-08-19T02:59:13.041Z,10.15
2022-08-19T03:01:43.072Z,10.30
2022-08-19T03:04:14.309Z,10.35
2022-08-19T03:06:44.702Z,10.68
2022-08-19T03:09:13.274Z,10.27
2022-08-19T03:11:40.952Z,10.93
2022-08-19T03:14:10.072Z,10.75
2022-08-19T03:16:48.557Z,10.70
2022-08-19T03:19:20.271Z,11.85
2022-08-19T03:21:47.839Z,12.02
2022-08-19T03:24:16.239Z,12.55
2022-08-19T03:26:47.878Z,12.02
2022-08-19T03:29:15.919Z,12.55
2022-08-19T03:31:58.487Z,12.63
2022-08-19T03:34:29.964Z,11.40
2022-08-19T03:36:58.703Z,12.20
2022-08-19T03:39:27.046Z,12.70
2022-08-19T03:42:32.424Z,11.40
2022-08-19T03:44:44.140Z,12.43
2022-08-19T03:47:11.495Z,12.15
2022-08-19T03:49:40.281Z,12.00
2022-08-19T03:52:07.789Z,12.90
2022-08-19T03:54:35.403Z,11.30
2022-08-19T03:57:03.508Z,11.82
2022-08-19T03:59:33.433Z,11.10
2022-08-19T04:02:06.233Z,11.77
2022-08-19T04:04:33.743Z,13.05
2022-08-19T04:07:02.385Z,13.07
2022-08-19T04:09:30.047Z,12.60
2022-08-19T04:11:58.682Z,13.20
2022-08-19T04:14:28.484Z,12.32
2022-08-19T04:16:55.679Z,12.02
2022-08-19T04:19:23.167Z,13.30
2022-08-19T04:21:53.347Z,13.45
2022-08-19T04:24:23.145Z,13.60
2022-08-19T04:26:51.914Z,11.73
2022-08-19T04:29:21.368Z,12.00
2022-08-19T04:31:49.153Z,12.98
2022-08-19T04:34:19.032Z,11.93
2022-08-19T04:36:46.722Z,12.00
2022-08-19T04:39:17.302Z,12.77
2022-08-19T04:41:47.250Z,12.00
2022-08-19T04:44:14.521Z,12.85
2022-08-19T04:46:50.873Z,13.30
2022-08-19T04:49:21.796Z,12.75
2022-08-19T04:51:49.681Z,12.57
2022-08-19T04:54:36.962Z,12.55
2022-08-19T04:57:08.246Z,11.07
2022-08-19T04:59:35.858Z,11.13
2022-08-19T05:02:03.730Z,12.75
2022-08-19T05:04:31.527Z,13.05
2022-08-19T05:07:00.829Z,12.90
2022-08-19T05:09:28.749Z,12.65
2022-08-19T05:12:18.427Z,12.90
2022-08-19T05:14:46.272Z,12.25
2022-08-19T05:17:32.097Z,12.90
2022-08-19T05:20:01.600Z,13.02
2022-08-19T05:22:28.842Z,12.65
2022-08-19T05:25:11.674Z,12.40
2022-08-19T05:27:43.041Z,12.80
2022-08-19T05:30:11.505Z,13.77
2022-08-19T05:32:39.176Z,12.57
2022-08-19T05:35:08.011Z,13.50
2022-08-19T05:37:35.211Z,12.98
2022-08-19T05:40:03.534Z,12.90
2022-08-19T05:42:31.213Z,13.63
2022-08-19T05:47:45.057Z,12.32
2022-08-19T05:50:15.002Z,12.45
2022-08-19T05:52:45.846Z,13.88
2022-08-19T05:55:17.469Z,12.18
2022-08-19T05:57:44.778Z,11.70
2022-08-19T06:00:14.689Z,12.90
2022-08-19T06:02:42.798Z,12.68
2022-08-19T06:05:11.340Z,11.43
2022-08-19T06:07:39.264Z,11.95
2022-08-19T06:10:09.609Z,12.68
2022-08-19T06:12:37.441Z,11.77
2022-08-19T06:15:09.903Z,12.35
2022-08-19T06:17:39.903Z,12.40
2022-08-19T06:20:09.648Z,11.85
2022-08-19T06:22:39.192Z,10.50
2022-08-19T06:25:08.006Z,10.65
2022-08-19T06:27:35.313Z,11.13
2022-08-19T06:30:03.382Z,10.55
2022-08-19T06:32:31.334Z,10.45
2022-08-19T06:35:00.137Z,10.27
2022-08-19T06:37:27.413Z,10.35
2022-08-19T06:39:55.055Z,10.90
2022-08-19T06:42:24.038Z,10.43
2022-08-19T06:44:53.294Z,10.85
2022-08-19T06:47:23.721Z,11.55
2022-08-19T06:50:01.404Z,10.35
2022-08-19T06:52:34.240Z,9.88
2022-08-19T06:55:01.750Z,8.82
2022-08-19T06:57:34.751Z,6.55
2022-08-19T07:00:02.154Z,7.28
2022-08-19T07:02:30.099Z,6.80
2022-08-19T07:04:57.666Z,6.40
2022-08-19T07:07:25.059Z,6.80
2022-08-19T07:10:00.869Z,7.07
2022-08-19T07:12:31.080Z,6.32
2022-08-19T07:14:59.062Z,6.47
2022-08-19T07:17:27.269Z,7.22
2022-08-19T07:19:54.892Z,7.63
2022-08-19T07:22:22.857Z,8.40
2022-08-19T07:24:53.249Z,7.13
2022-08-19T07:27:24.370Z,7.57
2022-08-19T07:29:57.144Z,7.78
2022-08-19T07:32:25.725Z,8.25
2022-08-19T07:34:53.080Z,8.25
2022-08-19T07:37:20.384Z,9.02
2022-08-19T07:39:47.818Z,9.25
2022-08-19T07:42:16.495Z,9.82
2022-08-19T07:44:50.558Z,8.65
2022-08-19T07:47:49.489Z,8.07
2022-08-19T07:50:11.150Z,7.90
2022-08-19T07:52:40.698Z,7.60
2022-08-19T07:55:11.407Z,7.60
2022-08-19T07:57:59.058Z,7.15
2022-08-19T08:00:26.593Z,6.65
2022-08-19T08:02:55.590Z,6.72
2022-08-19T08:05:24.373Z,7.22
2022-08-19T08:07:51.594Z,7.00
2022-08-19T08:10:21.020Z,6.93
2022-08-19T08:12:58.362Z,7.13
2022-08-19T08:15:42.206Z,6.30
2022-08-19T08:18:10.827Z,6.57
2022-08-19T08:20:38.600Z,7.30
2022-08-19T08:23:05.823Z,7.55
2022-08-19T08:25:34.410Z,7.05
2022-08-19T08:28:03.954Z,7.18
2022-08-19T08:30:32.751Z,7.40
2022-08-19T08:33:02.486Z,6.75
2022-08-19T08:35:30.017Z,7.15
2022-08-19T08:37:57.856Z,6.95
2022-08-19T08:40:30.389Z,6.53
2022-08-19T08:45:41.087Z,7.15
2022-08-19T08:48:22.356Z,6.97
2022-08-19T08:50:55.834Z,7.18
2022-08-19T08:53:29.637Z,6.78
2022-08-19T08:56:00.037Z,6.60
2022-08-19T08:58:33.129Z,6.90
2022-08-19T09:01:00.670Z,6.68
2022-08-19T09:03:31.598Z,6.43
2022-08-19T09:06:03.091Z,6.13
2022-08-19T09:08:44.224Z,6.15
2022-08-19T09:11:16.062Z,6.50
2022-08-19T09:14:40.617Z,5.80
2022-08-19T09:17:04.104Z,6.00
2022-08-19T09:19:33.809Z,5.50
2022-08-19T09:22:01.072Z,5.45
2022-08-19T09:24:31.240Z,4.88
2022-08-19T09:26:58.937Z,4.95
2022-08-19T09:29:26.228Z,4.95
2022-08-19T09:31:53.441Z,5.05
2022-08-19T09:34:22.182Z,5.25
2022-08-19T09:36:51.445Z,5.15
2022-08-19T09:39:19.305Z,4.95
2022-08-19T09:41:49.103Z,4.75
2022-08-19T09:44:16.799Z,5.22
2022-08-19T09:46:45.464Z,4.38
2022-08-19T09:49:13.469Z,5.05
2022-08-19T09:51:40.759Z,5.13
2022-08-19T09:54:11.518Z,5.07
2022-08-19T09:56:39.155Z,5.38
2022-08-19T09:59:09.626Z,5.30
2022-08-19T10:01:37.113Z,5.30
2022-08-19T10:04:14.694Z,4.80
2022-08-19T10:06:48.250Z,5.38
2022-08-19T10:09:33.794Z,5.18
2022-08-19T10:12:03.761Z,5.65
2022-08-19T10:14:31.666Z,5.05
2022-08-19T10:16:59.169Z,5.60
2022-08-19T10:19:26.616Z,5.90
2022-08-19T10:21:55.719Z,5.05
2022-08-19T10:24:29.598Z,4.68
2022-08-19T10:26:59.979Z,5.30
2022-08-19T10:29:32.979Z,5.00
2022-08-19T10:32:02.439Z,4.93
2022-08-19T10:34:31.560Z,4.70
2022-08-19T10:37:01.061Z,4.90
2022-08-19T10:39:32.875Z,5.00
2022-08-19T10:42:10.144Z,5.00
2022-08-19T10:44:37.625Z,5.78
2022-08-19T10:47:05.492Z,5.00
2022-08-19T10:49:50.260Z,4.43
2022-08-19T10:52:18.962Z,4.65
2022-08-19T10:54:49.307Z,4.70
2022-08-19T10:57:16.747Z,4.20
2022-08-19T10:59:43.971Z,4.47
2022-08-19T11:02:12.146Z,4.15
2022-08-19T11:04:40.549Z,4.45
2022-08-19T11:07:09.338Z,4.00
2022-08-19T11:09:40.914Z,4.65
2022-08-19T11:12:11.477Z,4.70
2022-08-19T11:14:38.847Z,4.75
2022-08-19T11:17:06.600Z,4.10
2022-08-19T11:19:34.753Z,3.80
2022-08-19T11:22:02.322Z,3.30
2022-08-19T11:24:31.442Z,3.90
2022-08-19T11:27:03.496Z,4.18
2022-08-19T11:29:32.991Z,4.18
2022-08-19T11:32:00.464Z,4.40
2022-08-19T11:34:28.313Z,4.10
2022-08-19T11:36:57.425Z,4.13
2022-08-19T11:39:26.115Z,3.60
2022-08-19T11:41:53.297Z,3.97
2022-08-19T11:44:20.681Z,3.50
2022-08-19T11:46:49.575Z,4.03
2022-08-19T11:49:19.090Z,3.72
2022-08-19T11:51:47.416Z,3.38
2022-08-19T11:54:15.941Z,3.85
2022-08-19T11:56:44.201Z,3.70
2022-08-19T11:59:14.647Z,3.65
2022-08-19T12:04:11.765Z,3.75
2022-08-19T12:06:41.017Z,3.38
2022-08-19T12:09:11.032Z,3.60
2022-08-19T12:11:39.084Z,2.88
2022-08-19T12:14:07.082Z,2.97
2022-08-19T12:16:34.774Z,3.20
2022-08-19T12:19:05.683Z,3.55
2022-08-19T12:21:36.572Z,3.53
2022-08-19T12:26:34.560Z,4.03
2022-08-19T12:29:04.185Z,4.25
2022-08-19T12:31:31.805Z,4.90
2022-08-19T12:33:59.642Z,4.38
2022-08-19T12:36:26.906Z,4.53
2022-08-19T12:38:55.801Z,4.15
2022-08-19T12:41:23.026Z,4.30
2022-08-19T12:43:50.779Z,4.35
2022-08-19T12:46:20.139Z,4.53
2022-08-19T12:48:51.126Z,4.70
2022-08-19T12:51:22.890Z,4.40
2022-08-19T12:53:50.308Z,4.70
2022-08-19T12:56:22.862Z,4.40
2022-08-19T12:58:52.812Z,4.65
2022-08-19T13:01:23.172Z,4.47
2022-08-19T13:03:51.388Z,4.40
2022-08-19T13:06:19.030Z,4.20
2022-08-19T13:08:47.673Z,4.65
2022-08-19T13:11:17.134Z,3.92
2022-08-19T13:13:48.865Z,4.93
2022-08-19T13:16:16.150Z,4.53
2022-08-19T13:18:46.235Z,4.70
2022-08-19T13:21:13.934Z,4.50
2022-08-19T13:23:42.331Z,4.25
2022-08-19T13:26:11.497Z,4.80
2022-08-19T13:28:40.740Z,4.22
2022-08-19T13:31:09.401Z,4.20
2022-08-19T13:33:36.669Z,4.53
2022-08-19T13:36:04.633Z,4.13
2022-08-19T13:38:31.918Z,3.80
2022-08-19T13:41:10.963Z,3.75
2022-08-19T13:43:41.156Z,4.63
2022-08-19T13:46:12.127Z,4.13
2022-08-19T13:48:39.518Z,5.45
2022-08-19T13:51:07.242Z,6.10
2022-08-19T13:53:34.459Z,8.07
2022-08-19T13:56:05.739Z,8.80
2022-08-19T13:58:35.240Z,10.52
2022-08-19T14:01:03.123Z,10.43
2022-08-19T14:03:32.635Z,11.18
2022-08-19T14:06:00.555Z,11.15
2022-08-19T14:08:27.857Z,10.90
2022-08-19T14:10:56.299Z,10.63
2022-08-19T14:13:24.596Z,11.65
2022-08-19T14:15:52.594Z,11.10
2022-08-19T14:18:20.212Z,11.68
2022-08-19T14:20:49.085Z,11.90
2022-08-19T14:23:16.395Z,11.98
2022-08-19T14:25:44.681Z,13.13
2022-08-19T14:28:12.180Z,12.35
2022-08-19T14:30:40.074Z,12.27
2022-08-19T14:33:08.150Z,12.52
2022-08-19T14:35:36.056Z,12.77
2022-08-19T14:38:06.456Z,12.88
2022-08-19T14:40:33.832Z,11.95
2022-08-19T14:43:04.579Z,12.30
2022-08-19T14:45:34.864Z,12.60
2022-08-19T14:48:04.988Z,13.10
2022-08-19T14:50:32.453Z,12.68
2022-08-19T14:53:00.888Z,13.07
2022-08-19T14:55:29.766Z,13.02
2022-08-19T14:57:57.329Z,13.15
2022-08-19T15:00:26.125Z,13.13
2022-08-19T15:02:53.907Z,13.55
2022-08-19T15:05:21.440Z,12.95
2022-08-19T15:07:48.839Z,12.77
2022-08-19T15:10:16.644Z,13.45
2022-08-19T15:12:48.599Z,12.23
2022-08-19T15:15:37.283Z,12.90
2022-08-19T15:18:04.700Z,11.73
2022-08-19T15:20:32.202Z,11.75
2022-08-19T15:22:59.463Z,12.80
2022-08-19T15:25:27.253Z,13.32
2022-08-19T15:27:56.666Z,14.95
2022-08-19T15:30:26.512Z,13.93
2022-08-19T15:32:54.112Z,12.93
2022-08-19T15:35:22.930Z,11.57
2022-08-19T15:37:51.246Z,12.60
2022-08-19T15:40:20.091Z,12.85
2022-08-19T15:42:47.905Z,10.82
2022-08-19T15:45:18.580Z,12.00
2022-08-19T15:47:45.830Z,11.15
2022-08-19T15:50:17.578Z,11.13
2022-08-19T15:52:50.295Z,11.15
2022-08-19T15:55:27.684Z,11.60
2022-08-19T15:58:01.806Z,11.75
2022-08-19T16:00:30.791Z,11.15
2022-08-19T16:02:58.045Z,10.80
2022-08-19T16:05:27.553Z,11.10
2022-08-19T16:07:55.239Z,10.75
2022-08-19T16:10:26.087Z,11.10
2022-08-19T16:12:54.249Z,11.65
2022-08-19T16:15:22.140Z,10.75
2022-08-19T16:17:57.116Z,10.52
2022-08-19T16:20:27.610Z,11.70
2022-08-19T16:22:55.446Z,11.30
2022-08-19T16:25:22.985Z,11.90
2022-08-19T16:28:06.443Z,11.57
2022-08-19T16:30:37.196Z,11.10
2022-08-19T16:33:06.768Z,11.00
2022-08-19T16:35:34.200Z,11.60
2022-08-19T16:38:04.679Z,11.00
2022-08-19T16:40:32.494Z,10.43
2022-08-19T16:43:00.457Z,9.73
2022-08-19T16:45:28.008Z,9.70
2022-08-19T16:47:55.939Z,10.18
2022-08-19T16:50:45.807Z,10.70
2022-08-19T16:53:12.953Z,10.32
2022-08-19T16:55:40.424Z,9.77
2022-08-19T16:58:07.679Z,10.43
2022-08-19T17:00:35.233Z,10.30
2022-08-19T17:03:06.677Z,9.60
2022-08-19T17:05:35.345Z,9.35
2022-08-19T17:08:03.271Z,10.32
2022-08-19T17:10:30.601Z,11.00
2022-08-19T17:12:58.038Z,10.85
2022-08-19T17:15:26.057Z,10.80
2022-08-19T17:17:53.459Z,10.55
2022-08-19T17:20:21.138Z,10.45
2022-08-19T17:22:50.365Z,10.75
2022-08-19T17:25:17.797Z,11.18
2022-08-19T17:27:44.936Z,10.05
2022-08-19T17:30:13.991Z,10.00
2022-08-19T17:32:41.276Z,10.43
2022-08-19T17:35:09.364Z,10.43
2022-08-19T17:37:38.083Z,11.23
2022-08-19T17:40:12.317Z,10.82
2022-08-19T17:42:43.213Z,11.38
2022-08-19T17:45:12.037Z,11.57
2022-08-19T17:47:41.817Z,10.63
2022-08-19T17:50:11.094Z,10.82
2022-08-19T17:52:38.901Z,9.95
2022-08-19T17:55:08.463Z,9.93
2022-08-19T17:57:36.543Z,11.27
2022-08-19T18:00:06.306Z,10.20
2022-08-19T18:02:44.950Z,10.10
2022-08-19T18:05:13.683Z,10.48
2022-08-19T18:07:41.516Z,10.63
2022-08-19T18:10:13.467Z,10.48
2022-08-19T18:12:40.738Z,11.25
2022-08-19T18:15:09.927Z,11.63
2022-08-19T18:17:37.215Z,11.55
2022-08-19T18:20:07.488Z,11.23
2022-08-19T18:22:39.364Z,11.02
2022-08-19T18:25:10.036Z,10.30
2022-08-19T18:30:08.235Z,10.05
2022-08-19T18:32:37.791Z,10.05
2022-08-19T18:35:08.541Z,10.60
2022-08-19T18:37:35.947Z,10.15
2022-08-19T18:40:04.294Z,11.10
2022-08-19T18:42:32.166Z,10.95
2022-08-19T18:45:00.776Z,11.35
2022-08-19T18:47:28.017Z,11.32
2022-08-19T18:49:55.863Z,10.93
2022-08-19T18:52:23.232Z,11.68
2022-08-19T18:54:50.564Z,11.63
2022-08-19T18:57:18.278Z,12.70
2022-08-19T18:59:46.448Z,11.82
2022-08-19T19:02:17.371Z,12.70
2022-08-19T19:04:46.267Z,12.43
2022-08-19T19:07:13.497Z,11.82
2022-08-19T19:09:41.829Z,12.00
2022-08-19T19:12:11.840Z,13.20
2022-08-19T19:14:49.895Z,12.45
2022-08-19T19:17:19.630Z,11.88
2022-08-19T19:19:46.996Z,12.07
2022-08-19T19:22:17.788Z,12.70
2022-08-19T19:24:45.739Z,12.57
2022-08-19T19:27:15.086Z,11.43
2022-08-19T19:29:42.606Z,12.13
2022-08-19T19:32:20.304Z,12.77
2022-08-19T19:34:49.135Z,13.43
2022-08-19T19:37:16.989Z,12.68
2022-08-19T19:39:46.332Z,13.23
2022-08-19T19:42:20.434Z,13.45
2022-08-19T19:44:50.630Z,12.00
2022-08-19T19:47:19.349Z,12.88
2022-08-19T19:50:12.728Z,13.05
2022-08-19T19:52:36.251Z,13.48
2022-08-19T19:55:03.914Z,12.95
2022-08-19T19:57:31.194Z,13.13
2022-08-19T19:59:59.099Z,12.02
2022-08-19T20:02:26.407Z,12.23
2022-08-19T20:04:55.071Z,12.55
2022-08-19T20:07:22.605Z,12.98
2022-08-19T20:09:59.862Z,11.45
2022-08-19T20:12:28.255Z,12.88
2022-08-19T20:14:55.515Z,13.18
2022-08-19T20:17:22.850Z,13.23
2022-08-19T20:19:50.382Z,13.15
2022-08-19T20:22:19.034Z,11.73
2022-08-19T20:24:46.557Z,11.93
2022-08-19T20:27:14.482Z,11.55
2022-08-19T20:29:44.262Z,12.80
2022-08-19T20:32:12.706Z,12.70
2022-08-19T20:34:40.760Z,11.48
2022-08-19T20:37:08.248Z,12.73
2022-08-19T20:39:37.175Z,12.43
2022-08-19T20:42:05.334Z,12.63
2022-08-19T20:44:32.561Z,13.02
2022-08-19T20:47:03.501Z,14.73
2022-08-19T20:49:32.402Z,13.65
2022-08-19T20:51:59.852Z,14.05
2022-08-19T20:54:27.850Z,14.95
2022-08-19T20:56:57.417Z,14.48
2022-08-19T20:59:24.842Z,13.55
2022-08-19T21:01:53.316Z,14.85
2022-08-19T21:04:24.356Z,16.35
2022-08-19T21:06:54.500Z,15.25
2022-08-19T21:09:22.176Z,16.27
2022-08-19T21:11:50.214Z,16.52
2022-08-19T21:14:18.754Z,16.00
2022-08-19T21:16:46.485Z,17.35
2022-08-19T21:19:13.811Z,18.08
2022-08-19T21:21:41.056Z,17.63
2022-08-19T21:24:08.831Z,17.13
2022-08-19T21:26:36.115Z,16.77
2022-08-19T21:29:03.512Z,16.85
2022-08-19T21:31:32.722Z,18.02
2022-08-19T21:33:59.927Z,16.58
2022-08-19T21:36:27.261Z,16.50
2022-08-19T21:38:54.856Z,16.52
2022-08-19T21:41:22.420Z,15.77
2022-08-19T21:43:49.652Z,17.95
2022-08-19T21:46:17.309Z,18.17
2022-08-19T21:48:46.018Z,17.05
2022-08-19T21:51:13.651Z,18.42
2022-08-19T21:53:41.367Z,16.85
2022-08-19T21:56:10.881Z,18.20
2022-08-19T21:58:38.141Z,18.45
2022-08-19T22:01:06.533Z,18.08
2022-08-19T22:03:35.247Z,18.42
2022-08-19T22:06:05.293Z,17.40
2022-08-19T22:08:32.907Z,19.05
2022-08-19T22:11:00.090Z,18.35
2022-08-19T22:13:28.466Z,18.13
2022-08-19T22:15:55.943Z,18.90
2022-08-19T22:18:23.148Z,18.17
2022-08-19T22:20:50.602Z,19.73
2022-08-19T22:23:19.538Z,17.42
2022-08-19T22:25:47.293Z,17.38
2022-08-19T22:28:19.179Z,17.10
2022-08-19T22:30:56.060Z,17.63
2022-08-19T22:33:24.110Z,16.17
2022-08-19T22:35:52.888Z,16.48
2022-08-19T22:38:22.825Z,17.65
2022-08-19T22:40:51.623Z,18.27
2022-08-19T22:43:22.345Z,17.65
2022-08-19T22:45:51.364Z,16.10
2022-08-19T22:48:19.522Z,15.80
2022-08-19T22:50:48.274Z,17.70
2022-08-19T22:53:15.787Z,18.52
2022-08-19T22:55:44.488Z,17.02
2022-08-19T22:58:11.784Z,16.35
2022-08-19T23:00:39.410Z,16.67
2022-08-19T23:03:06.879Z,16.13
2022-08-19T23:05:34.058Z,16.88
2022-08-19T23:08:05.726Z,18.95
2022-08-19T23:10:33.228Z,18.08
2022-08-19T23:13:01.937Z,18.55
2022-08-19T23:15:32.405Z,17.50
2022-08-19T23:18:02.526Z,17.80
2022-08-19T23:20:32.322Z,19.10
2022-08-19T23:23:01.961Z,19.27
2022-08-19T23:25:31.210Z,20.70
2022-08-19T23:27:59.200Z,19.27
2022-08-19T23:30:29.832Z,19.45
2022-08-19T23:33:00.018Z,17.65
2022-08-19T23:35:32.614Z,19.58
2022-08-19T23:38:00.051Z,20.02
2022-08-19T23:40:27.813Z,20.60
2022-08-19T23:42:55.551Z,19.92
2022-08-19T23:45:24.695Z,20.02
2022-08-19T23:47:54.064Z,18.35
2022-08-19T23:50:22.941Z,19.20
2022-08-19T23:52:52.986Z,19.00
2022-08-19T23:55:23.102Z,19.27
2022-08-19T23:57:51.164Z,19.45
